sensor_id;sensor_type;location;lat;lon;timestamp;pressure;altitude;pressure_sealevel;temperature;humidity
70158;BME280;57524;48.312;7.938;2022-08-18T00:01:49;99008.16;;;19.62;70.34
70158;BME280;57524;48.312;7.938;2022-08-18T00:04:16;99005.50;;;19.62;70.27
70158;BME280;57524;48.312;7.938;2022-08-18T00:06:43;99004.75;;;19.60;69.97
70158;BME280;57524;48.312;7.938;2022-08-18T00:09:09;99017.38;;;19.58;70.35
70158;BME280;57524;48.312;7.938;2022-08-18T00:11:41;99008.38;;;19.59;70.15
70158;BME280;57524;48.312;7.938;2022-08-18T00:14:11;99007.53;;;19.58;70.39
70158;BME280;57524;48.312;7.938;2022-08-18T00:16:38;99004.19;;;19.55;70.36
70158;BME280;57524;48.312;7.938;2022-08-18T00:19:06;98998.28;;;19.49;70.25
70158;BME280;57524;48.312;7.938;2022-08-18T00:21:33;98995.91;;;19.45;70.37
70158;BME280;57524;48.312;7.938;2022-08-18T00:23:59;98988.94;;;19.42;70.41
70158;BME280;57524;48.312;7.938;2022-08-18T00:26:26;98989.13;;;19.39;70.61
70158;BME280;57524;48.312;7.938;2022-08-18T00:28:53;98987.44;;;19.38;70.83
70158;BME280;57524;48.312;7.938;2022-08-18T00:31:20;98992.00;;;19.36;70.92
70158;BME280;57524;48.312;7.938;2022-08-18T00:33:46;98967.00;;;19.37;70.83
70158;BME280;57524;48.312;7.938;2022-08-18T00:36:14;98974.06;;;19.38;70.64
70158;BME280;57524;48.312;7.938;2022-08-18T00:38:41;98967.75;;;19.39;70.97
70158;BME280;57524;48.312;7.938;2022-08-18T00:41:08;98962.06;;;19.31;70.92
70158;BME280;57524;48.312;7.938;2022-08-18T00:43:38;98963.75;;;19.32;70.96
70158;BME280;57524;48.312;7.938;2022-08-18T00:46:08;98968.47;;;19.28;70.90
70158;BME280;57524;48.312;7.938;2022-08-18T00:48:35;98976.19;;;19.33;71.06
70158;BME280;57524;48.312;7.938;2022-08-18T00:51:05;98984.00;;;19.36;70.75
70158;BME280;57524;48.312;7.938;2022-08-18T00:53:39;98981.09;;;19.39;71.20
70158;BME280;57524;48.312;7.938;2022-08-18T00:56:13;98979.41;;;19.38;71.15
70158;BME280;57524;48.312;7.938;2022-08-18T00:58:45;98992.88;;;19.37;71.69
70158;BME280;57524;48.312;7.938;2022-08-18T01:01:15;98986.88;;;19.33;71.68
70158;BME280;57524;48.312;7.938;2022-08-18T01:03:43;98981.72;;;19.30;71.27
70158;BME280;57524;48.312;7.938;2022-08-18T01:06:22;98980.19;;;19.26;71.28
70158;BME280;57524;48.312;7.938;2022-08-18T01:08:54;98959.00;;;19.23;71.10
70158;BME280;57524;48.312;7.938;2022-08-18T01:11:21;98972.16;;;19.26;70.99
70158;BME280;57524;48.312;7.938;2022-08-18T01:13:47;98967.41;;;19.31;70.87
70158;BME280;57524;48.312;7.938;2022-08-18T01:16:14;98966.53;;;19.30;70.56
70158;BME280;57524;48.312;7.938;2022-08-18T01:18:58;98967.78;;;19.25;71.18
70158;BME280;57524;48.312;7.938;2022-08-18T01:21:46;98972.75;;;19.31;70.93
70158;BME280;57524;48.312;7.938;2022-08-18T01:24:22;98973.69;;;19.30;70.57
70158;BME280;57524;48.312;7.938;2022-08-18T01:27:12;98974.56;;;19.30;71.00
70158;BME280;57524;48.312;7.938;2022-08-18T01:29:42;98976.56;;;19.27;71.52
70158;BME280;57524;48.312;7.938;2022-08-18T01:32:09;98973.34;;;19.22;71.37
70158;BME280;57524;48.312;7.938;2022-08-18T01:34:37;98970.09;;;19.17;72.11
70158;BME280;57524;48.312;7.938;2022-08-18T01:37:03;98963.41;;;19.09;72.18
70158;BME280;57524;48.312;7.938;2022-08-18T01:39:32;98961.88;;;19.05;72.38
70158;BME280;57524;48.312;7.938;2022-08-18T01:41:59;98971.34;;;19.11;72.14
70158;BME280;57524;48.312;7.938;2022-08-18T01:44:29;98970.09;;;19.17;71.68
70158;BME280;57524;48.312;7.938;2022-08-18T01:46:55;98969.06;;;19.19;71.92
70158;BME280;57524;48.312;7.938;2022-08-18T01:49:22;98962.81;;;19.19;71.40
70158;BME280;57524;48.312;7.938;2022-08-18T01:51:49;98955.97;;;19.15;72.06
70158;BME280;57524;48.312;7.938;2022-08-18T01:54:16;98957.91;;;19.13;72.10
70158;BME280;57524;48.312;7.938;2022-08-18T01:56:44;98961.31;;;19.15;72.17
70158;BME280;57524;48.312;7.938;2022-08-18T01:59:12;98958.63;;;19.15;72.36
70158;BME280;57524;48.312;7.938;2022-08-18T02:01:41;98960.38;;;19.16;71.96
70158;BME280;57524;48.312;7.938;2022-08-18T02:04:09;98961.88;;;19.20;71.65
70158;BME280;57524;48.312;7.938;2022-08-18T02:06:37;98957.31;;;19.22;71.77
70158;BME280;57524;48.312;7.938;2022-08-18T02:09:04;98948.53;;;19.20;71.72
70158;BME280;57524;48.312;7.938;2022-08-18T02:11:30;98947.22;;;19.13;72.22
70158;BME280;57524;48.312;7.938;2022-08-18T02:13:58;98945.00;;;19.05;72.72
70158;BME280;57524;48.312;7.938;2022-08-18T02:16:25;98943.19;;;19.05;72.78
70158;BME280;57524;48.312;7.938;2022-08-18T02:18:52;98930.88;;;19.03;72.68
70158;BME280;57524;48.312;7.938;2022-08-18T02:21:19;98934.69;;;18.99;72.28
70158;BME280;57524;48.312;7.938;2022-08-18T02:23:47;98925.91;;;18.97;72.79
70158;BME280;57524;48.312;7.938;2022-08-18T02:26:15;98926.81;;;18.97;72.66
70158;BME280;57524;48.312;7.938;2022-08-18T02:28:43;98920.78;;;18.94;72.97
70158;BME280;57524;48.312;7.938;2022-08-18T02:31:12;98926.81;;;18.97;73.18
70158;BME280;57524;48.312;7.938;2022-08-18T02:33:40;98921.94;;;19.04;72.36
70158;BME280;57524;48.312;7.938;2022-08-18T02:36:07;98927.72;;;19.10;72.24
70158;BME280;57524;48.312;7.938;2022-08-18T02:38:35;98928.59;;;19.11;72.18
70158;BME280;57524;48.312;7.938;2022-08-18T02:41:03;98931.16;;;19.13;71.83
70158;BME280;57524;48.312;7.938;2022-08-18T02:43:32;98929.22;;;19.15;71.88
70158;BME280;57524;48.312;7.938;2022-08-18T02:45:58;98919.59;;;19.12;71.77
70158;BME280;57524;48.312;7.938;2022-08-18T02:48:26;98916.84;;;19.14;71.83
70158;BME280;57524;48.312;7.938;2022-08-18T02:50:59;98917.22;;;19.07;72.16
70158;BME280;57524;48.312;7.938;2022-08-18T02:53:26;98916.06;;;19.11;71.61
70158;BME280;57524;48.312;7.938;2022-08-18T02:55:53;98916.47;;;19.05;72.60
70158;BME280;57524;48.312;7.938;2022-08-18T02:58:20;98925.75;;;19.00;72.45
70158;BME280;57524;48.312;7.938;2022-08-18T03:00:47;98920.56;;;18.97;72.40
70158;BME280;57524;48.312;7.938;2022-08-18T03:03:13;98918.97;;;18.94;72.71
70158;BME280;57524;48.312;7.938;2022-08-18T03:05:41;98912.84;;;18.92;72.56
70158;BME280;57524;48.312;7.938;2022-08-18T03:08:08;98906.38;;;18.96;72.56
70158;BME280;57524;48.312;7.938;2022-08-18T03:10:36;98899.31;;;18.95;72.44
70158;BME280;57524;48.312;7.938;2022-08-18T03:13:03;98906.19;;;18.99;72.86
70158;BME280;57524;48.312;7.938;2022-08-18T03:15:30;98902.47;;;19.02;72.14
70158;BME280;57524;48.312;7.938;2022-08-18T03:17:57;98906.75;;;19.04;72.08
70158;BME280;57524;48.312;7.938;2022-08-18T03:20:24;98908.34;;;19.07;71.97
70158;BME280;57524;48.312;7.938;2022-08-18T03:22:52;98904.84;;;19.06;72.13
70158;BME280;57524;48.312;7.938;2022-08-18T03:25:19;98898.63;;;19.06;71.83
70158;BME280;57524;48.312;7.938;2022-08-18T03:27:45;98901.41;;;19.04;72.38
70158;BME280;57524;48.312;7.938;2022-08-18T03:30:12;98904.28;;;19.01;72.61
70158;BME280;57524;48.312;7.938;2022-08-18T03:32:39;98897.19;;;19.00;72.53
70158;BME280;57524;48.312;7.938;2022-08-18T03:35:06;98896.25;;;19.01;72.57
70158;BME280;57524;48.312;7.938;2022-08-18T03:37:33;98891.31;;;18.95;73.24
70158;BME280;57524;48.312;7.938;2022-08-18T03:40:02;98891.47;;;18.92;72.77
70158;BME280;57524;48.312;7.938;2022-08-18T03:42:29;98893.22;;;18.93;73.15
70158;BME280;57524;48.312;7.938;2022-08-18T03:44:56;98884.44;;;18.91;73.23
70158;BME280;57524;48.312;7.938;2022-08-18T03:47:22;98891.31;;;18.95;73.01
70158;BME280;57524;48.312;7.938;2022-08-18T03:49:49;98884.06;;;18.97;72.97
70158;BME280;57524;48.312;7.938;2022-08-18T03:52:16;98890.72;;;19.04;72.93
70158;BME280;57524;48.312;7.938;2022-08-18T03:54:42;98882.78;;;19.03;72.39
70158;BME280;57524;48.312;7.938;2022-08-18T03:57:11;98881.16;;;19.00;73.15
70158;BME280;57524;48.312;7.938;2022-08-18T03:59:38;98882.69;;;19.04;73.02
70158;BME280;57524;48.312;7.938;2022-08-18T04:02:05;98883.63;;;19.03;72.76
70158;BME280;57524;48.312;7.938;2022-08-18T04:04:32;98871.03;;;19.05;72.76
70158;BME280;57524;48.312;7.938;2022-08-18T04:07:01;98880.97;;;19.03;72.65
70158;BME280;57524;48.312;7.938;2022-08-18T04:09:30;98885.38;;;19.04;72.73
70158;BME280;57524;48.312;7.938;2022-08-18T04:12:02;98885.38;;;19.04;72.83
70158;BME280;57524;48.312;7.938;2022-08-18T04:14:31;98889.88;;;19.04;73.29
70158;BME280;57524;48.312;7.938;2022-08-18T04:16:58;98895.19;;;19.04;72.98
70158;BME280;57524;48.312;7.938;2022-08-18T04:19:25;98888.97;;;19.03;72.99
70158;BME280;57524;48.312;7.938;2022-08-18T04:21:52;98906.94;;;19.01;73.01
70158;BME280;57524;48.312;7.938;2022-08-18T04:24:19;98903.69;;;18.96;73.13
70158;BME280;57524;48.312;7.938;2022-08-18T04:26:46;98904.84;;;18.92;73.51
70158;BME280;57524;48.312;7.938;2022-08-18T04:29:15;98900.69;;;18.88;73.55
70158;BME280;57524;48.312;7.938;2022-08-18T04:31:43;98904.50;;;18.84;73.52
70158;BME280;57524;48.312;7.938;2022-08-18T04:34:10;98916.41;;;18.93;73.18
70158;BME280;57524;48.312;7.938;2022-08-18T04:36:38;98926.03;;;18.95;73.29
70158;BME280;57524;48.312;7.938;2022-08-18T04:39:06;98928.72;;;18.95;73.23
70158;BME280;57524;48.312;7.938;2022-08-18T04:41:34;98931.94;;;19.00;73.08
70158;BME280;57524;48.312;7.938;2022-08-18T04:44:05;98928.50;;;18.98;72.88
70158;BME280;57524;48.312;7.938;2022-08-18T04:46:39;98946.28;;;18.99;73.06
70158;BME280;57524;48.312;7.938;2022-08-18T04:49:09;98954.38;;;18.98;73.01
70158;BME280;57524;48.312;7.938;2022-08-18T04:51:39;98944.91;;;18.92;73.46
70158;BME280;57524;48.312;7.938;2022-08-18T04:54:06;98952.75;;;18.95;73.86
70158;BME280;57524;48.312;7.938;2022-08-18T04:56:34;98947.28;;;18.97;74.41
70158;BME280;57524;48.312;7.938;2022-08-18T04:59:03;98949.88;;;18.98;73.93
70158;BME280;57524;48.312;7.938;2022-08-18T05:01:35;98954.66;;;18.93;73.87
70158;BME280;57524;48.312;7.938;2022-08-18T05:04:03;98948.94;;;18.85;73.95
70158;BME280;57524;48.312;7.938;2022-08-18T05:06:31;98946.06;;;18.74;74.99
70158;BME280;57524;48.312;7.938;2022-08-18T05:09:01;98945.78;;;18.64;75.24
70158;BME280;57524;48.312;7.938;2022-08-18T05:11:30;98936.31;;;18.58;75.20
70158;BME280;57524;48.312;7.938;2022-08-18T05:13:58;98938.22;;;18.56;75.17
70158;BME280;57524;48.312;7.938;2022-08-18T05:16:26;98925.75;;;18.57;75.62
70158;BME280;57524;48.312;7.938;2022-08-18T05:18:53;98926.53;;;18.59;75.71
70158;BME280;57524;48.312;7.938;2022-08-18T05:21:21;98927.38;;;18.59;75.78
70158;BME280;57524;48.312;7.938;2022-08-18T05:23:50;98914.59;;;18.64;75.57
70158;BME280;57524;48.312;7.938;2022-08-18T05:26:17;98916.13;;;18.68;75.32
70158;BME280;57524;48.312;7.938;2022-08-18T05:28:45;98918.50;;;18.73;75.09
70158;BME280;57524;48.312;7.938;2022-08-18T05:31:14;98915.34;;;18.81;74.88
70158;BME280;57524;48.312;7.938;2022-08-18T05:33:41;98918.63;;;18.86;74.69
70158;BME280;57524;48.312;7.938;2022-08-18T05:36:25;98912.22;;;18.88;74.56
70158;BME280;57524;48.312;7.938;2022-08-18T05:39:02;98911.53;;;18.85;74.65
70158;BME280;57524;48.312;7.938;2022-08-18T05:41:34;98913.66;;;18.80;74.98
70158;BME280;57524;48.312;7.938;2022-08-18T05:44:02;98910.22;;;18.78;75.12
70158;BME280;57524;48.312;7.938;2022-08-18T05:46:36;98906.19;;;18.70;75.26
70158;BME280;57524;48.312;7.938;2022-08-18T05:49:04;98909.03;;;18.67;75.53
70158;BME280;57524;48.312;7.938;2022-08-18T05:51:34;98905.63;;;18.65;75.47
70158;BME280;57524;48.312;7.938;2022-08-18T05:54:05;98902.00;;;18.66;75.06
70158;BME280;57524;48.312;7.938;2022-08-18T05:56:50;98907.13;;;18.69;75.22
70158;BME280;57524;48.312;7.938;2022-08-18T05:59:22;98909.72;;;18.71;75.27
70158;BME280;57524;48.312;7.938;2022-08-18T06:01:54;98907.13;;;18.69;75.42
70158;BME280;57524;48.312;7.938;2022-08-18T06:04:27;98906.19;;;18.70;74.99
70158;BME280;57524;48.312;7.938;2022-08-18T06:06:55;98920.19;;;18.74;75.01
70158;BME280;57524;48.312;7.938;2022-08-18T06:09:27;98926.16;;;18.79;74.83
70158;BME280;57524;48.312;7.938;2022-08-18T06:12:03;98936.72;;;18.81;74.50
70158;BME280;57524;48.312;7.938;2022-08-18T06:14:36;98941.91;;;18.84;74.09
70158;BME280;57524;48.312;7.938;2022-08-18T06:17:10;98958.47;;;18.89;74.49
70158;BME280;57524;48.312;7.938;2022-08-18T06:19:44;98971.63;;;18.92;74.15
70158;BME280;57524;48.312;7.938;2022-08-18T06:22:22;98974.44;;;18.90;74.53
70158;BME280;57524;48.312;7.938;2022-08-18T06:24:59;98974.91;;;18.97;73.98
70158;BME280;57524;48.312;7.938;2022-08-18T06:27:36;98983.69;;;18.99;73.91
70158;BME280;57524;48.312;7.938;2022-08-18T06:30:10;98990.34;;;19.06;73.64
70158;BME280;57524;48.312;7.938;2022-08-18T06:32:57;98983.94;;;19.09;73.64
70158;BME280;57524;48.312;7.938;2022-08-18T06:35:33;98997.22;;;19.10;73.65
70158;BME280;57524;48.312;7.938;2022-08-18T06:38:08;98993.56;;;19.11;74.12
70158;BME280;57524;48.312;7.938;2022-08-18T06:41:02;98997.97;;;19.13;73.79
70158;BME280;57524;48.312;7.938;2022-08-18T06:43:30;98992.72;;;19.11;73.65
70158;BME280;57524;48.312;7.938;2022-08-18T06:45:58;98995.69;;;19.06;73.74
70158;BME280;57524;48.312;7.938;2022-08-18T06:48:31;98998.44;;;19.05;74.28
70158;BME280;57524;48.312;7.938;2022-08-18T06:51:03;98985.84;;;19.07;74.22
70158;BME280;57524;48.312;7.938;2022-08-18T06:53:53;98971.25;;;19.13;74.17
70158;BME280;57524;48.312;7.938;2022-08-18T06:56:26;98982.69;;;19.15;73.94
70158;BME280;57524;48.312;7.938;2022-08-18T06:58:54;98988.22;;;19.11;74.16
70158;BME280;57524;48.312;7.938;2022-08-18T07:01:38;98994.56;;;19.10;74.22
70158;BME280;57524;48.312;7.938;2022-08-18T07:04:05;98996.34;;;19.10;73.47
70158;BME280;57524;48.312;7.938;2022-08-18T07:06:32;99000.84;;;19.09;73.46
70158;BME280;57524;48.312;7.938;2022-08-18T07:09:18;99006.00;;;19.13;73.75
70158;BME280;57524;48.312;7.938;2022-08-18T07:12:00;98997.56;;;19.19;73.52
70158;BME280;57524;48.312;7.938;2022-08-18T07:14:27;98994.72;;;19.22;73.67
70158;BME280;57524;48.312;7.938;2022-08-18T07:17:06;98986.50;;;19.25;73.79
70158;BME280;57524;48.312;7.938;2022-08-18T07:19:33;98979.78;;;19.32;73.17
70158;BME280;57524;48.312;7.938;2022-08-18T07:22:04;98974.28;;;19.35;73.48
70158;BME280;57524;48.312;7.938;2022-08-18T07:24:33;98980.16;;;19.40;73.45
70158;BME280;57524;48.312;7.938;2022-08-18T07:27:08;98979.41;;;19.38;72.90
70158;BME280;57524;48.312;7.938;2022-08-18T07:29:37;98981.69;;;19.44;73.11
70158;BME280;57524;48.312;7.938;2022-08-18T07:32:10;98979.00;;;19.44;72.79
70158;BME280;57524;48.312;7.938;2022-08-18T07:34:40;98972.69;;;19.45;72.77
70158;BME280;57524;48.312;7.938;2022-08-18T07:37:13;98978.81;;;19.47;72.77
70158;BME280;57524;48.312;7.938;2022-08-18T07:39:46;98980.94;;;19.42;73.19
70158;BME280;57524;48.312;7.938;2022-08-18T07:42:27;98988.19;;;19.40;73.68
70158;BME280;57524;48.312;7.938;2022-08-18T07:45:03;98982.09;;;19.38;73.88
70158;BME280;57524;48.312;7.938;2022-08-18T07:47:44;98986.44;;;19.39;73.17
70158;BME280;57524;48.312;7.938;2022-08-18T07:50:14;98986.66;;;19.36;73.76
70158;BME280;57524;48.312;7.938;2022-08-18T07:52:46;98993.16;;;19.32;73.63
70158;BME280;57524;48.312;7.938;2022-08-18T07:55:23;98994.31;;;19.28;73.63
70158;BME280;57524;48.312;7.938;2022-08-18T07:57:58;98985.13;;;19.32;74.05
70158;BME280;57524;48.312;7.938;2022-08-18T08:00:31;98976.72;;;19.38;74.28
70158;BME280;57524;48.312;7.938;2022-08-18T08:03:15;98982.34;;;19.48;73.96
70158;BME280;57524;48.312;7.938;2022-08-18T08:05:54;98990.63;;;19.58;73.99
70158;BME280;57524;48.312;7.938;2022-08-18T08:08:27;98990.22;;;19.64;73.39
70158;BME280;57524;48.312;7.938;2022-08-18T08:11:04;98988.28;;;19.66;72.62
70158;BME280;57524;48.312;7.938;2022-08-18T08:13:46;98964.97;;;19.68;72.18
70158;BME280;57524;48.312;7.938;2022-08-18T08:16:27;98952.84;;;19.77;71.97
70158;BME280;57524;48.312;7.938;2022-08-18T08:19:04;98959.31;;;19.87;71.33
70158;BME280;57524;48.312;7.938;2022-08-18T08:21:39;98979.44;;;19.92;71.73
70158;BME280;57524;48.312;7.938;2022-08-18T08:24:13;99016.91;;;19.92;72.42
70158;BME280;57524;48.312;7.938;2022-08-18T08:26:50;99017.19;;;19.88;72.09
70158;BME280;57524;48.312;7.938;2022-08-18T08:29:28;98994.41;;;19.82;71.85
70158;BME280;57524;48.312;7.938;2022-08-18T08:32:03;98975.00;;;19.79;71.91
70158;BME280;57524;48.312;7.938;2022-08-18T08:34:35;98967.81;;;19.79;71.59
70158;BME280;57524;48.312;7.938;2022-08-18T08:37:06;98962.28;;;19.82;71.92
70158;BME280;57524;48.312;7.938;2022-08-18T08:39:37;98972.78;;;19.85;72.42
70158;BME280;57524;48.312;7.938;2022-08-18T08:42:10;98957.97;;;19.80;72.79
70158;BME280;57524;48.312;7.938;2022-08-18T08:44:44;98956.59;;;19.74;72.54
70158;BME280;57524;48.312;7.938;2022-08-18T08:47:17;98948.03;;;19.69;72.59
70158;BME280;57524;48.312;7.938;2022-08-18T08:49:50;98937.19;;;19.70;72.48
70158;BME280;57524;48.312;7.938;2022-08-18T08:52:21;98947.03;;;19.70;73.11
70158;BME280;57524;48.312;7.938;2022-08-18T08:54:53;98950.69;;;19.69;73.76
70158;BME280;57524;48.312;7.938;2022-08-18T08:57:28;98954.28;;;19.68;73.47
70158;BME280;57524;48.312;7.938;2022-08-18T09:00:00;98958.09;;;19.64;73.40
70158;BME280;57524;48.312;7.938;2022-08-18T09:02:36;98956.50;;;19.61;73.30
70158;BME280;57524;48.312;7.938;2022-08-18T09:05:11;98947.84;;;19.58;73.62
70158;BME280;57524;48.312;7.938;2022-08-18T09:07:52;98944.41;;;19.56;73.49
70158;BME280;57524;48.312;7.938;2022-08-18T09:10:43;98950.38;;;19.59;73.29
70158;BME280;57524;48.312;7.938;2022-08-18T09:13:30;98956.63;;;19.60;73.75
70158;BME280;57524;48.312;7.938;2022-08-18T09:16:16;98953.94;;;19.60;74.05
70158;BME280;57524;48.312;7.938;2022-08-18T09:18:55;98958.31;;;19.61;73.96
70158;BME280;57524;48.312;7.938;2022-08-18T09:21:33;98954.69;;;19.62;74.21
70158;BME280;57524;48.312;7.938;2022-08-18T09:24:19;98959.47;;;19.71;74.42
70158;BME280;57524;48.312;7.938;2022-08-18T09:26:51;98973.19;;;19.79;74.26
70158;BME280;57524;48.312;7.938;2022-08-18T09:29:25;98976.22;;;19.87;73.72
70158;BME280;57524;48.312;7.938;2022-08-18T09:35:08;98983.97;;;20.05;72.52
70158;BME280;57524;48.312;7.938;2022-08-18T09:37:46;98992.31;;;20.13;72.58
70158;BME280;57524;48.312;7.938;2022-08-18T09:40:44;98988.56;;;20.15;71.76
70158;BME280;57524;48.312;7.938;2022-08-18T09:43:33;98990.97;;;20.20;70.30
70158;BME280;57524;48.312;7.938;2022-08-18T09:46:02;98987.84;;;20.26;70.41
70158;BME280;57524;48.312;7.938;2022-08-18T09:48:31;98983.25;;;20.28;71.10
70158;BME280;57524;48.312;7.938;2022-08-18T09:51:30;98978.44;;;20.33;70.63
70158;BME280;57524;48.312;7.938;2022-08-18T09:54:19;98969.44;;;20.34;70.07
70158;BME280;57524;48.312;7.938;2022-08-18T09:57:17;98954.66;;;20.42;70.56
70158;BME280;57524;48.312;7.938;2022-08-18T10:03:12;98929.09;;;20.63;70.04
70158;BME280;57524;48.312;7.938;2022-08-18T10:05:56;98916.75;;;20.73;69.42
70158;BME280;57524;48.312;7.938;2022-08-18T10:08:39;98910.97;;;20.80;69.47
70158;BME280;57524;48.312;7.938;2022-08-18T10:11:21;98898.53;;;20.79;68.85
70158;BME280;57524;48.312;7.938;2022-08-18T10:13:55;98907.09;;;20.84;68.99
70158;BME280;57524;48.312;7.938;2022-08-18T10:16:29;98895.81;;;20.91;69.17
70158;BME280;57524;48.312;7.938;2022-08-18T10:19:06;98888.19;;;20.98;69.59
70158;BME280;57524;48.312;7.938;2022-08-18T10:22:02;98896.03;;;21.01;68.87
70158;BME280;57524;48.312;7.938;2022-08-18T10:24:33;98900.41;;;21.02;68.79
70158;BME280;57524;48.312;7.938;2022-08-18T10:27:04;98901.66;;;21.09;68.94
70158;BME280;57524;48.312;7.938;2022-08-18T10:29:55;98893.69;;;21.21;69.01
70158;BME280;57524;48.312;7.938;2022-08-18T10:32:38;98892.28;;;21.28;68.15
70158;BME280;57524;48.312;7.938;2022-08-18T10:38:26;98877.59;;;21.21;67.50
70158;BME280;57524;48.312;7.938;2022-08-18T10:40:59;98880.28;;;21.21;67.45
70158;BME280;57524;48.312;7.938;2022-08-18T10:43:33;98886.63;;;21.20;67.98
70158;BME280;57524;48.312;7.938;2022-08-18T10:46:00;98886.63;;;21.20;67.60
70158;BME280;57524;48.312;7.938;2022-08-18T10:48:30;98895.41;;;21.22;67.17
70158;BME280;57524;48.312;7.938;2022-08-18T10:51:02;98888.13;;;21.24;67.46
70158;BME280;57524;48.312;7.938;2022-08-18T10:53:36;98902.28;;;21.26;67.79
70158;BME280;57524;48.312;7.938;2022-08-18T10:56:10;98898.59;;;21.27;67.37
70158;BME280;57524;48.312;7.938;2022-08-18T10:58:49;98898.09;;;21.22;67.39
70158;BME280;57524;48.312;7.938;2022-08-18T11:01:39;98900.53;;;21.25;67.69
70158;BME280;57524;48.312;7.938;2022-08-18T11:04:23;98906.88;;;21.24;67.94
70158;BME280;57524;48.312;7.938;2022-08-18T11:07:00;98886.19;;;21.26;67.98
70158;BME280;57524;48.312;7.938;2022-08-18T11:09:29;98876.69;;;21.33;68.08
70158;BME280;57524;48.312;7.938;2022-08-18T11:12:00;98857.28;;;21.42;67.27
70158;BME280;57524;48.312;7.938;2022-08-18T11:14:41;98862.44;;;21.56;67.68
70158;BME280;57524;48.312;7.938;2022-08-18T11:17:19;98855.91;;;21.72;67.04
70158;BME280;57524;48.312;7.938;2022-08-18T11:19:49;98844.00;;;21.87;66.63
70158;BME280;57524;48.312;7.938;2022-08-18T11:22:21;98851.69;;;21.92;66.77
70158;BME280;57524;48.312;7.938;2022-08-18T11:24:48;98853.66;;;22.01;66.32
70158;BME280;57524;48.312;7.938;2022-08-18T11:27:21;98842.81;;;22.03;66.50
70158;BME280;57524;48.312;7.938;2022-08-18T11:29:48;98840.63;;;22.08;66.46
70158;BME280;57524;48.312;7.938;2022-08-18T11:32:19;98831.81;;;22.06;66.04
70158;BME280;57524;48.312;7.938;2022-08-18T11:34:49;98837.44;;;22.03;66.63
70158;BME280;57524;48.312;7.938;2022-08-18T11:37:23;98832.78;;;21.93;66.70
70158;BME280;57524;48.312;7.938;2022-08-18T11:39:54;98830.84;;;21.95;66.56
70158;BME280;57524;48.312;7.938;2022-08-18T11:42:28;98838.16;;;21.93;66.91
70158;BME280;57524;48.312;7.938;2022-08-18T11:45:06;98839.84;;;21.94;66.88
70158;BME280;57524;48.312;7.938;2022-08-18T11:47:58;98839.84;;;21.94;66.71
70158;BME280;57524;48.312;7.938;2022-08-18T11:50:28;98840.00;;;21.93;66.82
70158;BME280;57524;48.312;7.938;2022-08-18T11:52:55;98833.00;;;21.90;66.36
70158;BME280;57524;48.312;7.938;2022-08-18T11:55:28;98840.94;;;21.92;66.60
70158;BME280;57524;48.312;7.938;2022-08-18T11:57:57;98832.78;;;21.93;66.08
70158;BME280;57524;48.312;7.938;2022-08-18T12:00:35;98836.22;;;21.95;66.92
70158;BME280;57524;48.312;7.938;2022-08-18T12:03:03;98830.59;;;21.98;66.29
70158;BME280;57524;48.312;7.938;2022-08-18T12:05:40;98828.91;;;21.97;66.62
70158;BME280;57524;48.312;7.938;2022-08-18T12:08:16;98842.31;;;21.97;66.33
70158;BME280;57524;48.312;7.938;2022-08-18T12:10:44;98835.72;;;22.01;67.01
70158;BME280;57524;48.312;7.938;2022-08-18T12:13:21;98839.50;;;21.99;65.98
70158;BME280;57524;48.312;7.938;2022-08-18T12:16:07;98835.00;;;21.99;66.14
70158;BME280;57524;48.312;7.938;2022-08-18T12:18:34;98832.91;;;22.03;65.99
70158;BME280;57524;48.312;7.938;2022-08-18T12:21:01;98841.00;;;22.14;65.72
70158;BME280;57524;48.312;7.938;2022-08-18T12:23:28;98838.19;;;22.16;65.69
70158;BME280;57524;48.312;7.938;2022-08-18T12:25:54;98836.25;;;22.18;65.75
70158;BME280;57524;48.312;7.938;2022-08-18T12:28:22;98843.13;;;22.22;65.80
70158;BME280;57524;48.312;7.938;2022-08-18T12:30:51;98834.28;;;22.20;66.00
70158;BME280;57524;48.312;7.938;2022-08-18T12:33:18;98826.75;;;22.25;66.04
70158;BME280;57524;48.312;7.938;2022-08-18T12:35:44;98829.69;;;22.33;66.01
70158;BME280;57524;48.312;7.938;2022-08-18T12:38:11;98820.41;;;22.37;65.60
70158;BME280;57524;48.312;7.938;2022-08-18T12:40:40;98818.69;;;22.36;64.55
70158;BME280;57524;48.312;7.938;2022-08-18T12:43:06;98819.69;;;22.35;65.37
70158;BME280;57524;48.312;7.938;2022-08-18T12:45:34;98834.34;;;22.31;65.17
70158;BME280;57524;48.312;7.938;2022-08-18T12:48:02;98821.38;;;22.25;65.49
70158;BME280;57524;48.312;7.938;2022-08-18T12:50:29;98830.88;;;22.18;65.41
70158;BME280;57524;48.312;7.938;2022-08-18T12:52:55;98834.78;;;22.14;65.81
70158;BME280;57524;48.312;7.938;2022-08-18T12:55:22;98835.25;;;22.08;65.62
70158;BME280;57524;48.312;7.938;2022-08-18T12:57:49;98827.94;;;22.10;66.02
70158;BME280;57524;48.312;7.938;2022-08-18T13:00:16;98822.19;;;22.03;65.98
70158;BME280;57524;48.312;7.938;2022-08-18T13:02:44;98814.97;;;22.04;66.39
70158;BME280;57524;48.312;7.938;2022-08-18T13:05:11;98816.22;;;21.99;66.31
70158;BME280;57524;48.312;7.938;2022-08-18T13:07:37;98809.75;;;22.02;65.68
70158;BME280;57524;48.312;7.938;2022-08-18T13:10:05;98796.69;;;21.97;65.75
70158;BME280;57524;48.312;7.938;2022-08-18T13:12:32;98800.69;;;22.03;66.10
70158;BME280;57524;48.312;7.938;2022-08-18T13:14:58;98796.19;;;22.04;66.12
70158;BME280;57524;48.312;7.938;2022-08-18T13:17:25;98797.16;;;22.03;66.01
70158;BME280;57524;48.312;7.938;2022-08-18T13:19:53;98791.69;;;22.04;65.92
70158;BME280;57524;48.312;7.938;2022-08-18T13:22:20;98787.16;;;22.05;66.41
70158;BME280;57524;48.312;7.938;2022-08-18T13:24:46;98781.31;;;22.11;65.80
70158;BME280;57524;48.312;7.938;2022-08-18T13:27:14;98787.16;;;22.16;66.16
70158;BME280;57524;48.312;7.938;2022-08-18T13:29:40;98789.84;;;22.16;65.72
70158;BME280;57524;48.312;7.938;2022-08-18T13:32:07;98778.00;;;22.18;65.94
70158;BME280;57524;48.312;7.938;2022-08-18T13:34:33;98784.03;;;22.22;65.31